Řízení letového provozu České republiky
Letiste: LKLN Aktualizace: 16.12.2017 22:08:04  UTC
 METAR LKLN 16.12. 22:00 ...
METAR LKLN 162200Z AUTO 24005KT 210V280 9999 BKN069 01/M01 Q1013=